New Hampshire Logo

Manchester, NH Single Family Real Estate Listings

311 Total Real Estate Listings * Click on table heading to sort
Date Posted Property Type Style Address Price Living Area Lot Size Price/Sq Ft.
2018-08-20 Single Family Cape 199 Tarrytown Manchester, NH 03103 $225,000 1,366 sq. ft. 7,405 sq. ft. $165
2018-08-19 Single Family Ranch 276 Jewett Manchester, NH 03103 $235,000 1,195 sq. ft. 6,534 sq. ft. $197
2018-08-19 Single Family Ranch 87 S. Wilson Manchester, NH 03103 $259,900 2,221 sq. ft. 4,792 sq. ft. $117
2018-08-19 Single Family New Englander 580 S Main Manchester, NH 03102 $225,000 1,692 sq. ft. 5,227 sq. ft. $133
2018-08-18 Single Family Cape 21 Erie Manchester, NH 03102 $219,000 1,080 sq. ft. 5,227 sq. ft. $203
2018-08-18 Single Family Antique; Historic Vintage; Tudor; Victorian 220 Myrtle Manchester, NH 03104 $929,000 4,945 sq. ft. 11,326 sq. ft. $188
2018-08-18 Single Family New Englander; Victorian 94 Everett Manchester, NH 03104 $370,000 2,452 sq. ft. 5,663 sq. ft. $151
2018-08-18 Single Family Colonial 50 Riverdale Avenue Manchester, NH 03103 $350,000 1,904 sq. ft. 11,326 sq. ft. $184
2018-08-18 Single Family Cape 260 Brent Manchester, NH 03103 $265,000 1,428 sq. ft. 10,890 sq. ft. $186
2018-08-18 Single Family Cape 100 S Lincoln Manchester, NH 03103 $264,900 1,580 sq. ft. 6,534 sq. ft. $168
2018-08-18 Single Family Cape 3 Home Manchester, NH 03103 $234,900 1,656 sq. ft. 7,405 sq. ft. $142
2018-08-18 Single Family Ranch 104 Ward Manchester, NH 03104 $224,900 960 sq. ft. 8,712 sq. ft. $234
2018-08-16 Single Family Ranch 76 Electric Manchester, NH 03102 $249,700 968 sq. ft. 16,988 sq. ft. $258
2018-08-16 Single Family Cape 895 Beech Manchester, NH 03104 $219,900 1,092 sq. ft. 5,227 sq. ft. $201
2018-08-16 Single Family Colonial; Contemporary 25 Bruce Manchester, NH 03104 $295,000 3,004 sq. ft. 8,712 sq. ft. $98
2018-08-16 Single Family Gambrel 34 Surrey Manchester, NH 03103 $279,900 1,536 sq. ft. 12,632 sq. ft. $182
2018-08-15 Single Family New Englander 17 Columbus Manchester, NH 03102 $269,900 2,910 sq. ft. 5,227 sq. ft. $93
2018-08-15 Single Family Ranch 25 Checkerberry Manchester, NH 03102 $489,900 3,352 sq. ft. $146
2018-08-15 Single Family Cape 116 Hall Manchester, NH 03103 $171,000 1,344 sq. ft. 5,227 sq. ft. $127
2018-08-15 Single Family Split Level 165 Weston Manchester, NH 03103 $237,500 1,761 sq. ft. 18,731 sq. ft. $135
2018-08-15 Single Family Ranch 904 Hall Manchester, NH 03104 $269,900 1,758 sq. ft. 8,276 sq. ft. $154
2018-08-15 Single Family Ranch 70 Almond Manchester, NH 03102 $194,900 1,168 sq. ft. 10,019 sq. ft. $167
2018-08-14 Single Family Contemporary; Walkout Lower Level 1445 Union Manchester, NH 03104 $379,900 2,782 sq. ft. 15,682 sq. ft. $137
2018-08-14 Single Family Colonial 48 Cottonwood Manchester, NH 03102 $359,900 1,574 sq. ft. 622,037 sq. ft. $229
2018-08-14 Single Family Multi-Level 105 Brae Burn Manchester, NH 03104 $389,900 2,809 sq. ft. 59,242 sq. ft. $139
2018-08-14 Single Family Cape 89 Dewey Manchester, NH 03103 $229,900 1,234 sq. ft. 6,098 sq. ft. $186
2018-08-14 Single Family Colonial 33 Beech Plum Manchester, NH 03109 $319,000 2,400 sq. ft. 10,019 sq. ft. $133
2018-08-14 Single Family Ranch 550 Brown Manchester, NH 03103 $220,000 1,464 sq. ft. 9,148 sq. ft. $150
2018-08-13 Single Family Ranch 554 Huse Manchester, NH 03103 $400,000 2,848 sq. ft. 43,124 sq. ft. $140
2018-08-13 Single Family Ranch 543 Dix Manchester, NH 03103 $219,900 1,650 sq. ft. 5,227 sq. ft. $133
2018-08-12 Single Family Cape 20 Tilton Manchester, NH 03102 $190,000 1,688 sq. ft. 5,663 sq. ft. $113
2018-08-11 Single Family Colonial; Historic Vintage; Victorian 48 Carpenter Manchester, NH 03104 $574,900 4,900 sq. ft. 18,731 sq. ft. $117
2018-08-11 Single Family Cape 46 Chase Manchester, NH 03103 $229,900 2,128 sq. ft. 6,534 sq. ft. $108
2018-08-11 Single Family Ranch 192 Bryant Manchester, NH 03109 $247,500 1,614 sq. ft. 20,038 sq. ft. $153
2018-08-10 Single Family Ranch 390 S. Porter Manchester, NH 03103 $175,000 912 sq. ft. 6,098 sq. ft. $192
2018-08-10 Single Family Ranch 160 Broadhead Manchester, NH 03103 $239,900 1,152 sq. ft. 10,890 sq. ft. $208
2018-08-10 Single Family Ranch 113 Cottage Manchester, NH 03103 $187,900 1,215 sq. ft. 10,890 sq. ft. $155
2018-08-10 Single Family Colonial 5 Streamside Manchester, NH 03102 $345,900 1,768 sq. ft. 11,326 sq. ft. $196
2018-08-09 Single Family Ranch 38 Nourie Manchester, NH 03102 $269,900 1,571 sq. ft. 15,246 sq. ft. $172
2018-08-09 Single Family Ranch 630 Blodget Manchester, NH 03104 $264,900 1,283 sq. ft. 8,276 sq. ft. $206
2018-08-09 Single Family Ranch 75 Hobart Manchester, NH 03104 $209,900 816 sq. ft. 7,841 sq. ft. $257
2018-08-09 Single Family Cape 172 Holly Manchester, NH 03103 $209,900 1,368 sq. ft. 6,534 sq. ft. $153
2018-08-09 Single Family Cape 2932 Elm Manchester, NH 03104 $499,000 3,880 sq. ft. 29,621 sq. ft. $129
2018-08-09 Single Family Cape 169 Ash Manchester, NH 03104 $278,000 1,634 sq. ft. 7,405 sq. ft. $170
2018-08-09 Single Family Colonial; New Englander 141 Sewall Manchester, NH 03103 $190,000 1,418 sq. ft. 11,326 sq. ft. $134
2018-08-08 Single Family Ranch 243 Gabrielle Manchester, NH 03103 $215,000 1,092 sq. ft. 7,405 sq. ft. $197
2018-08-08 Single Family Cape 116 Lovering Manchester, NH 03109 $225,000 1,760 sq. ft. 7,841 sq. ft. $128
2018-08-08 Single Family Cape 336 Bartlett Manchester, NH 03102 $175,900 1,700 sq. ft. 4,792 sq. ft. $103
2018-08-08 Single Family Colonial 1700 River Manchester, NH 03104 $379,900 2,440 sq. ft. 83,635 sq. ft. $156
2018-08-07 Single Family Cape 46 Cushing Manchester, NH 03109 $264,900 1,477 sq. ft. 10,890 sq. ft. $179
2018-08-07 Single Family Colonial 165 Taylor Manchester, NH 03103 $298,900 1,730 sq. ft. 8,712 sq. ft. $173
2018-08-07 Single Family Colonial 41 Clough Manchester, NH 03103 $194,900 2,020 sq. ft. 4,356 sq. ft. $96
2018-08-07 Single Family Colonial; Contemporary 21 Heathrow Manchester, NH 03104 $329,000 2,464 sq. ft. 10,890 sq. ft. $134
2018-08-07 Single Family Cape 366 Day Manchester, NH 03104 $249,900 1,632 sq. ft. 7,841 sq. ft. $153
2018-08-07 Single Family Tri-Level 1125 Wellington Manchester, NH 03104 $239,900 1,814 sq. ft. 24,829 sq. ft. $132
2018-08-06 Single Family Colonial 44 Devco Manchester, NH 03103 $264,900 2,258 sq. ft. 9,148 sq. ft. $117
2018-08-06 Single Family Colonial 128 Bismark Manchester, NH 03102 $264,900 1,376 sq. ft. 5,227 sq. ft. $193
2018-08-06 Single Family Colonial; Tudor 281 Kearney Manchester, NH 03104 $447,900 2,510 sq. ft. 14,810 sq. ft. $178
2018-08-06 Single Family Colonial 50 Garden Walk Manchester, NH 03109 $329,900 2,472 sq. ft. 9,148 sq. ft. $133
2018-08-06 Single Family New Englander 116 Lancaster Manchester, NH 03103 $214,900 1,549 sq. ft. 3,485 sq. ft. $139
2018-08-06 Single Family Ranch 202 S Porter Manchester, NH 03103 $198,000 1,100 sq. ft. 6,970 sq. ft. $180
2018-08-05 Single Family Cape 884 Dix Manchester, NH 03103 $230,000 1,134 sq. ft. 5,227 sq. ft. $203
2018-08-04 Single Family Cape 155 Whitford Manchester, NH 03104 $409,900 2,261 sq. ft. 43,560 sq. ft. $181
2018-08-04 Single Family Tri-Level 105 Vassar Manchester, NH 03104 $449,900 2,855 sq. ft. 20,038 sq. ft. $158
2018-08-03 Single Family Raised Ranch 159 Straw Manchester, NH 03102 $259,900 1,650 sq. ft. 30,056 sq. ft. $158
2018-08-03 Single Family Gambrel 250 Goffstown Manchester, NH 03102 $274,900 2,540 sq. ft. 6,970 sq. ft. $108
2018-08-03 Single Family Colonial 39 Kenney Manchester, NH 03104 $225,000 2,043 sq. ft. 13,068 sq. ft. $110
2018-08-03 Single Family New Englander 337 Walnut Manchester, NH 03104 $239,900 1,812 sq. ft. 5,227 sq. ft. $132
2018-08-03 Single Family Cape 72 Maryland Manchester, NH 03104 $247,900 1,245 sq. ft. 10,019 sq. ft. $199
2018-08-02 Single Family Colonial 21 Colby Manchester, NH 03102 $224,000 1,400 sq. ft. 6,970 sq. ft. $160
2018-08-02 Single Family Colonial 944 Smyth Manchester, NH 03104 $395,000 2,280 sq. ft. 57,499 sq. ft. $173
2018-08-02 Single Family Colonial 269 Kennard Manchester, NH 03104 $399,900 4,886 sq. ft. 22,216 sq. ft. $82
2018-08-02 Single Family Cape 493 Walnut Manchester, NH 03104 $349,900 1,986 sq. ft. 10,890 sq. ft. $176
2018-08-02 Single Family Cape 51 Blackstone Manchester, NH 03103 $229,900 1,435 sq. ft. 4,356 sq. ft. $160
2018-08-02 Single Family Colonial 400 Dubuque Manchester, NH 03102 $179,900 2,064 sq. ft. 5,227 sq. ft. $87
2018-08-02 Single Family New Englander 1043 Somerville Manchester, NH 03103 $159,900 620 sq. ft. 4,792 sq. ft. $258
2018-08-02 Single Family Colonial 152 Whittington Manchester, NH 03104 $319,900 1,614 sq. ft. 10,890 sq. ft. $198
2018-08-01 Single Family Cape 585 Dix Manchester, NH 03103 $259,000 1,728 sq. ft. 6,970 sq. ft. $150
2018-08-01 Single Family Cape 239 Cilley Road Manchester, NH 03013 $245,000 1,730 sq. ft. 9,148 sq. ft. $142
2018-08-01 Single Family Ranch 18 Cumberland Manchester, NH 03102 $225,000 946 sq. ft. 4,792 sq. ft. $238
2018-08-01 Single Family Colonial; Garrison 12 Ellingwood Manchester, NH 03103 $336,500 2,640 sq. ft. 6,970 sq. ft. $127
2018-08-01 Single Family Ranch 24 Sunset Manchester, NH 03104 $242,000 1,296 sq. ft. 8,276 sq. ft. $187
2018-07-31 Single Family Colonial 43 Cottonwood Manchester, NH 03102 $367,400 1,574 sq. ft. 622,037 sq. ft. $233
2018-07-30 Single Family Ranch 105 Doris Manchester, NH 03103 $224,900 1,488 sq. ft. 4,792 sq. ft. $151
2018-07-30 Single Family New Englander 170 Taylor Manchester, NH 03103 $250,000 1,600 sq. ft. 6,098 sq. ft. $156
2018-07-30 Single Family Colonial 2222 Elm Manchester, NH 03104 $329,900 2,252 sq. ft. 19,602 sq. ft. $146
2018-07-28 Single Family Raised Ranch 330 Calef Manchester, NH 03103 $258,900 1,872 sq. ft. 5,227 sq. ft. $138
2018-07-27 Single Family Colonial 1051 Union Manchester, NH 03104 $750,000 4,690 sq. ft. 23,087 sq. ft. $160
2018-07-25 Single Family Ranch 49 Norcross Manchester, NH 03109 $265,000 1,718 sq. ft. 11,326 sq. ft. $154
2018-07-25 Single Family Cape; W/Addition 35 Green Acres Manchester, NH 03109 $290,000 1,500 sq. ft. 13,939 sq. ft. $193
2018-07-25 Single Family Ranch 99 Mayflower Manchester, NH 03104 $295,000 1,720 sq. ft. 9,583 sq. ft. $172
2018-07-25 Single Family Ranch 502 Shasta Manchester, NH 03103 $199,900 816 sq. ft. 5,227 sq. ft. $245
2018-07-25 Single Family Cape 40 Blackstone Manchester, NH 03103 $264,900 1,624 sq. ft. 9,148 sq. ft. $163
2018-07-25 Single Family Cape 1120 Somerville Manchester, NH 03103 $249,900 1,840 sq. ft. 10,019 sq. ft. $136
2018-07-25 Single Family Colonial 33 Cottonwood Manchester, NH 03102 $357,900 1,486 sq. ft. $241
2018-07-25 Single Family Colonial 15 Cottonwood Manchester, NH 03102 $357,900 1,448 sq. ft. $247
2018-07-24 Single Family Ranch 443 Normand Manchester, NH 03109 $225,000 1,000 sq. ft. 7,841 sq. ft. $225
2018-07-24 Single Family Ranch 245 Pickering Manchester, NH 03104 $269,900 1,780 sq. ft. 16,553 sq. ft. $152
2018-07-24 Single Family New Englander 355 Auburn Manchester, NH 03103 $184,900 2,089 sq. ft. 5,227 sq. ft. $89
2018-07-24 Single Family Cape 158 Wilkins Manchester, NH 03102 $267,000 1,670 sq. ft. 24,829 sq. ft. $160
2018-07-23 Single Family Cape 95 Vinton Manchester, NH 03103 $200,000 1,272 sq. ft. 9,148 sq. ft. $157
2018-07-23 Single Family Ranch 205 Mast Manchester, NH 03102 $167,900 636 sq. ft. 5,227 sq. ft. $264
2018-07-23 Single Family Ranch 156 Kenberma Manchester, NH 03103 $255,000 1,444 sq. ft. 8,276 sq. ft. $177
2018-07-23 Single Family Cape 22 Old Wellington Manchester, NH 03104 $219,500 1,551 sq. ft. $142
2018-07-22 Single Family Cape 361 Whitford Manchester, NH 03104 $489,000 3,261 sq. ft. 23,958 sq. ft. $150
2018-07-22 Single Family Raised Ranch 44 Memorial Manchester, NH 03103 $228,000 2,016 sq. ft. 10,454 sq. ft. $113
2018-07-20 Single Family Cape 336 Leda Manchester, NH 03104 $299,900 2,266 sq. ft. 49,658 sq. ft. $132
2018-07-20 Single Family Ranch 50 Martel Manchester, NH 03103 $289,900 2,512 sq. ft. 20,038 sq. ft. $115
2018-07-20 Single Family Colonial 812 Douglas Manchester, NH 03102 $245,000 1,576 sq. ft. 6,970 sq. ft. $155
2018-07-20 Single Family Antique; Bungalow; Colonial; Federal; New Englander; Victorian; Arts And Crafts; Craftsman 153 Tarrytown Manchester, NH 03103 $249,900 2,808 sq. ft. 6,098 sq. ft. $89
2018-07-20 Single Family Raised Ranch 25 Sweeney Manchester, NH 03102 $207,000 1,456 sq. ft. 3,920 sq. ft. $142
2018-07-20 Single Family Split Level 19 Smyth Manchester, NH 03104 $255,000 1,800 sq. ft. 8,712 sq. ft. $142
2018-07-19 Single Family Colonial 486 Whittington Manchester, NH 03104 $309,900 1,632 sq. ft. 8,712 sq. ft. $190
2018-07-19 Single Family Colonial; Craftsman 130 Ray Manchester, NH 03104 $278,000 1,464 sq. ft. 5,663 sq. ft. $190
2018-07-19 Single Family Colonial 420 Wellington Hill Manchester, NH 03104 $324,900 2,264 sq. ft. 8,276 sq. ft. $144
2018-07-19 Single Family Colonial 66 Windward Manchester, NH 03104 $325,000 2,072 sq. ft. 9,583 sq. ft. $157
2018-07-19 Single Family Split Level 428 Cohas Manchester, NH 03109 $360,000 3,180 sq. ft. 34,412 sq. ft. $113
2018-07-19 Single Family Bungalow 19 Hillcrest Manchester, NH 03103 $209,900 1,747 sq. ft. 3,920 sq. ft. $120
2018-07-18 Single Family New Englander 200 Laurel Manchester, NH 03103 $264,000 2,209 sq. ft. 5,227 sq. ft. $120
2018-07-18 Single Family Colonial 62 Burnsen Manchester, NH 03104 $359,900 3,040 sq. ft. 20,473 sq. ft. $118
2018-07-18 Single Family Colonial 50 Rosecliff Manchester, NH 03109 $334,900 2,112 sq. ft. 10,454 sq. ft. $159
2018-07-18 Single Family Ranch 10 Bruce Manchester, NH 03104 $279,900 2,526 sq. ft. 8,712 sq. ft. $111
2018-07-18 Single Family Raised Ranch; Split Level; Split Entry 31 Alphonse Manchester, NH 03103 $234,900 1,736 sq. ft. 7,405 sq. ft. $135
2018-07-17 Single Family Cape 157 Brock Manchester, NH 03102 $269,900 2,856 sq. ft. 10,454 sq. ft. $94
2018-07-16 Single Family Colonial 49 Cottonwood Manchester, NH 03102 $362,400 1,574 sq. ft. 622,037 sq. ft. $230
2018-07-16 Single Family Ranch 569 Kearney Manchester, NH 03104 $350,000 2,362 sq. ft. 16,988 sq. ft. $148
2018-07-16 Single Family Split Level; Split Entry 82 Holmes Manchester, NH 03104 $274,900 1,558 sq. ft. 7,405 sq. ft. $176
2018-07-16 Single Family Colonial 53 Lilac Manchester, NH 03109 $379,900 3,220 sq. ft. 18,295 sq. ft. $118
2018-07-14 Single Family Colonial 97 Rosegate Farm Manchester, NH 03109 $344,900 2,674 sq. ft. 24,394 sq. ft. $129
2018-07-14 Single Family Cape; W/Addition 44 Maurice Manchester, NH 03103 $295,000 2,422 sq. ft. 6,970 sq. ft. $122
2018-07-14 Single Family Ranch 105 Blackstone Manchester, NH 03103 $229,900 1,944 sq. ft. 7,405 sq. ft. $118
2018-07-13 Single Family Colonial 504 Candia Road Manchester, NH 03103 $314,900 1,500 sq. ft. 9,148 sq. ft. $210
2018-07-13 Single Family Split Level 96 Carolina Manchester, NH 03104 $315,000 1,820 sq. ft. 13,068 sq. ft. $173
2018-07-12 Single Family Cape 1270 Somerville Manchester, NH 03103 $239,900 1,737 sq. ft. 5,663 sq. ft. $138
2018-07-12 Single Family Farmhouse; New Englander 126 Goffstown Manchester, NH 03102 $259,900 1,999 sq. ft. 18,295 sq. ft. $130
2018-07-12 Single Family Cape 5 Mcphail Manchester, NH 03104 $199,999 1,398 sq. ft. 11,761 sq. ft. $143
2018-07-12 Single Family Townhouse 926 Fox Hollow Manchester, NH 03104 $175,000 1,542 sq. ft. $113
2018-07-12 Single Family Contemporary; Ranch 832 Wellington Manchester, NH 03104 $489,900 2,136 sq. ft. 15,682 sq. ft. $229
2018-07-12 Single Family Colonial 495 Crestview Manchester, NH 03104 $550,000 3,813 sq. ft. 22,216 sq. ft. $144
2018-07-12 Single Family New Englander 222 Laval Manchester, NH 03102 $225,000 1,115 sq. ft. 4,356 sq. ft. $202
2018-07-12 Single Family Cape 245 Taylor Manchester, NH 03103 $239,000 1,728 sq. ft. 11,326 sq. ft. $138
2018-07-11 Single Family Ranch 175 Pleasant Pond Manchester, NH 03102 $469,000 1,814 sq. ft. $259
2018-07-11 Single Family Colonial 790 Amherst Manchester, NH 03104 $225,000 1,088 sq. ft. 9,583 sq. ft. $207
2018-07-11 Single Family New Englander 274 Beech Manchester, NH 03103 $189,900 1,460 sq. ft. 6,970 sq. ft. $130
2018-07-11 Single Family Colonial 196 Dallaire Manchester, NH 03104 $388,900 2,332 sq. ft. 7,405 sq. ft. $167
2018-07-10 Single Family Colonial 7 Becker Manchester, NH 03102 $209,500 1,312 sq. ft. 3,485 sq. ft. $160
2018-07-10 Single Family Ranch 196 Whipple Manchester, NH 03102 $219,900 1,764 sq. ft. 5,227 sq. ft. $125
2018-07-09 Single Family Split Level; Split Entry 19 W Shore Manchester, NH 03109 $250,000 1,388 sq. ft. 18,731 sq. ft. $180
2018-07-09 Single Family Ranch 464 Cypress Manchester, NH 03103 $249,900 1,608 sq. ft. 9,583 sq. ft. $155
2018-07-09 Single Family Cape 29 Janet Manchester, NH 03103 $259,000 1,260 sq. ft. 15,246 sq. ft. $206
2018-07-09 Single Family Cape 34 Exchange Manchester, NH 03104 $234,900 1,205 sq. ft. 10,019 sq. ft. $195
2018-07-09 Single Family Ranch 14 Fern Manchester, NH 03109 $140,000 528 sq. ft. 5,227 sq. ft. $265
2018-07-07 Single Family Colonial 191 Sylvan Manchester, NH 03102 $347,500 1,768 sq. ft. 20,473 sq. ft. $197
2018-07-06 Single Family Cape 743 Hanover Manchester, NH 03104 $227,000 1,400 sq. ft. 4,792 sq. ft. $162
2018-07-06 Single Family Cape 102 Lovering Manchester, NH 03109 $194,900 974 sq. ft. 7,841 sq. ft. $200
2018-07-06 Single Family Cape 200 Morgan Manchester, NH 03102 $189,500 1,352 sq. ft. 4,792 sq. ft. $140
2018-07-05 Single Family New Englander 171 Laval Manchester, NH 03102 $219,900 1,638 sq. ft. 4,356 sq. ft. $134
2018-07-05 Single Family Cape 340 S Mammoth Manchester, NH 03109 $255,000 1,908 sq. ft. 9,583 sq. ft. $134
2018-07-05 Single Family Colonial 156 Marathon Manchester, NH 03109 $339,900 2,172 sq. ft. $156
2018-07-05 Single Family Ranch 605 Brown Manchester, NH 03103 $240,000 1,092 sq. ft. 19,166 sq. ft. $220
2018-07-04 Single Family Gambrel 22 Jonathan Manchester, NH 03104 $285,900 1,632 sq. ft. 7,405 sq. ft. $175
2018-07-03 Single Family Cape 115 W Mitchell Manchester, NH 03103 $254,900 1,372 sq. ft. 4,356 sq. ft. $186
2018-07-03 Single Family Cape 566 Kelley Manchester, NH 03102 $230,000 1,880 sq. ft. 7,405 sq. ft. $122
2018-07-03 Single Family Colonial 154 Morning Glory Manchester, NH 03109 $314,900 1,728 sq. ft. 8,712 sq. ft. $182
2018-07-02 Single Family Colonial 587 Hanover Manchester, NH 03104 $297,700 1,904 sq. ft. 9,583 sq. ft. $156
2018-07-01 Single Family Colonial 2264 Elm Manchester, NH 03104 $659,900 4,084 sq. ft. 10,019 sq. ft. $162
2018-07-01 Single Family New Englander 279 Bridge Manchester, NH 03104 $189,900 1,072 sq. ft. 5,663 sq. ft. $177
2018-06-29 Single Family Cape 44 Jonathan Manchester, NH 03104 $279,900 2,244 sq. ft. 7,405 sq. ft. $125
2018-06-29 Single Family Colonial 911 Chestnut Manchester, NH 03104 $439,900 4,539 sq. ft. 16,117 sq. ft. $97
2018-06-29 Single Family Cape 923 Chestnut Manchester, NH 03104 $375,000 2,121 sq. ft. 6,098 sq. ft. $177
2018-06-29 Single Family Cape 275 Eve Manchester, NH 03104 $190,000 2,120 sq. ft. 5,227 sq. ft. $90
2018-06-28 Single Family Colonial; Gambrel 395 Brent Manchester, NH 03103 $269,900 1,560 sq. ft. 7,405 sq. ft. $173
2018-06-28 Single Family Victorian 255 Sagamore Manchester, NH 03104 $279,900 2,248 sq. ft. 7,405 sq. ft. $125
2018-06-28 Single Family Raised Ranch 2 Faith Manchester, NH 03103 $239,999 1,800 sq. ft. 9,583 sq. ft. $133
2018-06-27 Single Family Ranch 390 Kearney Manchester, NH 03104 $699,900 4,870 sq. ft. 33,106 sq. ft. $144
2018-06-27 Single Family Cape 91 Elgin Manchester, NH 03104 $244,900 1,210 sq. ft. 15,682 sq. ft. $202
2018-06-27 Single Family Cape 75 Tarbell Manchester, NH 03104 $250,000 1,312 sq. ft. 9,583 sq. ft. $191
2018-06-27 Single Family New Englander 172 Young Manchester, NH 03103 $345,000 3,234 sq. ft. 29,621 sq. ft. $107
2018-06-27 Single Family Cape 37 C Street Manchester, NH 03102 $219,900 1,541 sq. ft. 6,970 sq. ft. $143
2018-06-25 Single Family Ranch 106 Warner Manchester, NH 03102 $209,900 1,200 sq. ft. 5,227 sq. ft. $175
2018-06-25 Single Family Split Level 10 Jonathan Manchester, NH 03104 $230,000 1,850 sq. ft. 8,712 sq. ft. $124
2018-06-25 Single Family Ranch 106 Esty Ave Manchester, NH 03104 $229,900 1,614 sq. ft. 10,454 sq. ft. $142
2018-06-24 Single Family Farmhouse 251 Goffstown Manchester, NH 03102 $234,900 1,894 sq. ft. 6,098 sq. ft. $124
2018-06-22 Single Family Colonial 85 Pasture Manchester, NH 03102 $299,900 1,672 sq. ft. 8,276 sq. ft. $179
2018-06-22 Single Family Ranch 251 Joliette Manchester, NH 03102 $226,999 1,132 sq. ft. 10,019 sq. ft. $201
2018-06-21 Single Family Ranch 64 Oakwood Manchester, NH 03103 $239,000 1,878 sq. ft. 12,632 sq. ft. $127
2018-06-21 Single Family Ranch 33 Flagstone Manchester, NH 03109 $329,900 1,792 sq. ft. 67,954 sq. ft. $184
2018-06-21 Single Family New Englander 185 Mystic Manchester, NH 03103 $259,900 1,570 sq. ft. 13,504 sq. ft. $166
2018-06-21 Single Family Cape 50 Denis Manchester, NH 03102 $275,000 1,992 sq. ft. 10,454 sq. ft. $138
2018-06-21 Single Family Colonial; Modern Architecture; Reproduction; Tudor; W/Addition 465 Crestview Manchester, NH 03104 $479,900 3,667 sq. ft. 16,117 sq. ft. $131
2018-06-21 Single Family Colonial 25 Garmon Street Manchester, NH 03104 $239,900 1,616 sq. ft. 7,405 sq. ft. $148
2018-06-20 Single Family Cape 31 Lamonte Street Manchester, NH 03104 $254,900 1,638 sq. ft. 5,227 sq. ft. $156
2018-06-20 Single Family Ranch 1287 Chestnut Manchester, NH 03104 $619,000 3,277 sq. ft. 27,443 sq. ft. $189
2018-06-20 Single Family Cape 73 Young Manchester, NH 03103 $199,999 974 sq. ft. 6,534 sq. ft. $205
2018-06-20 Single Family Ranch 278 Holly Manchester, NH 03103 $235,000 1,579 sq. ft. 4,356 sq. ft. $149
2018-06-20 Single Family Cape 431 Lowell Manchester, NH 03104 $206,000 1,092 sq. ft. 5,663 sq. ft. $189
2018-06-19 Single Family Colonial 389 Hawthorne Manchester, NH 03104 $349,900 2,948 sq. ft. 10,019 sq. ft. $119
2018-06-19 Single Family Colonial 62 Armand Manchester, NH 03103 $254,900 1,980 sq. ft. 4,356 sq. ft. $129
2018-06-19 Single Family Ranch 850 Wellington Manchester, NH 03104 $489,900 4,346 sq. ft. 15,682 sq. ft. $113
2018-06-19 Single Family Contemporary 98 Highview Manchester, NH 03104 $359,900 2,749 sq. ft. 28,314 sq. ft. $131
2018-06-18 Single Family Colonial 487 Oak Manchester, NH 03104 $323,000 2,300 sq. ft. 12,197 sq. ft. $140
2018-06-18 Single Family Cape 413 Coral Manchester, NH 03104 $335,000 2,413 sq. ft. 16,117 sq. ft. $139
2018-06-18 Single Family Cape 133 Precourt Manchester, NH 03102 $186,300 1,312 sq. ft. 6,098 sq. ft. $142
2018-06-15 Single Family Colonial 114 Filips Glen Manchester, NH 03109 $389,900 2,500 sq. ft. 14,810 sq. ft. $156
2018-06-15 Single Family Gambrel; Victorian 347 Bridge Manchester, NH 03104 $194,900 1,584 sq. ft. 3,920 sq. ft. $123
2018-06-15 Single Family Ranch 42 Alder Court Manchester, NH 03103 $249,900 1,240 sq. ft. 14,375 sq. ft. $202
2018-06-15 Single Family Cape 55 Bedel Manchester, NH 03102 $298,500 2,113 sq. ft. 26,572 sq. ft. $141
2018-06-15 Single Family Cape 60 Dewey Manchester, NH 03103 $219,900 1,142 sq. ft. 5,227 sq. ft. $193
2018-06-15 Single Family New Englander 80 Milford Street Manchester, NH 03102 $175,000 2,007 sq. ft. 4,792 sq. ft. $87
2018-06-14 Single Family Ranch 851 Cilley Manchester, NH 03103 $232,900 1,712 sq. ft. 6,098 sq. ft. $136
2018-06-14 Single Family 544 Spruce (Upper) Manchester, NH 03103 $215,000 1,183 sq. ft. 5,663 sq. ft. $182
2018-06-14 Single Family Ranch 574 Central Manchester, NH 03103 $182,000 1,512 sq. ft. 7,405 sq. ft. $120
2018-06-14 Single Family Multi-Level; Townhouse; Victorian 69 Brook Manchester, NH 03104 $179,900 2,359 sq. ft. 4,356 sq. ft. $76
2018-06-13 Single Family Colonial 2076 Lake Shore Manchester, NH 03109 $275,000 2,280 sq. ft. 20,038 sq. ft. $121
2018-06-13 Single Family Colonial 304 Currier Manchester, NH 03104 $349,999 2,808 sq. ft. 13,939 sq. ft. $125
2018-06-12 Single Family Cape 304 Bridge Manchester, NH 03104 $179,900 1,117 sq. ft. 3,049 sq. ft. $161
2018-06-12 Single Family Ranch 1187 Bridge Manchester, NH 03104 $245,000 1,720 sq. ft. 31,799 sq. ft. $142
2018-06-11 Single Family Colonial 485 Coolidge Manchester, NH 03102 $339,900 1,872 sq. ft. 10,019 sq. ft. $182
2018-06-11 Single Family Split Level 17 Purdue Manchester, NH 03103 $229,900 1,828 sq. ft. 8,712 sq. ft. $126
2018-06-09 Single Family Colonial 108 Arah Manchester, NH 03104 $319,900 2,300 sq. ft. 10,454 sq. ft. $139
2018-06-09 Single Family New Englander 97 Dearborn Manchester, NH 03103 $239,900 2,102 sq. ft. 3,920 sq. ft. $114
2018-06-08 Single Family Split Level 54 Alphonse Manchester, NH 03103 $234,999 1,610 sq. ft. 7,841 sq. ft. $146
2018-06-08 Single Family Ranch 289 Tory Manchester, NH 03104 $334,900 3,300 sq. ft. 21,780 sq. ft. $101
2018-06-07 Single Family Manuf/Mobile; Ranch 14 Lupine Manchester, NH 03109 $169,000 1,286 sq. ft. $131
2018-06-07 Single Family Contemporary 700 Cohas Manchester, NH 03109 $299,000 2,405 sq. ft. 10,890 sq. ft. $124
2018-06-07 Single Family Colonial 12 Blueberry Manchester, NH 03102 $489,900 2,685 sq. ft. 13,504 sq. ft. $182
2018-06-07 Single Family Craftsman 397 Stark Manchester, NH 03102 $685,000 2,772 sq. ft. 7,841 sq. ft. $247
2018-06-06 Single Family Colonial 82 Ashley Manchester, NH 03109 $299,900 1,728 sq. ft. 13,504 sq. ft. $174
2018-06-06 Single Family Ranch 90 Sherburne Manchester, NH 03104 $219,000 1,056 sq. ft. 6,098 sq. ft. $207
2018-06-04 Single Family Colonial 799 Island Pond Manchester, NH 03109 $369,900 1,625 sq. ft. 43,560 sq. ft. $228
2018-06-01 Single Family Colonial 96 S Ridge Manchester, NH 03109 $699,900 4,800 sq. ft. 43,560 sq. ft. $146
2018-06-01 Single Family New Englander 30 Taylor Manchester, NH 03103 $250,000 1,456 sq. ft. 8,712 sq. ft. $172
2018-05-31 Single Family Colonial 78 Ladyslipper Manchester, NH 03109 $415,900 2,354 sq. ft. 12,197 sq. ft. $177
2018-05-31 Single Family Colonial; Gambrel 133 Corning Manchester, NH 03109 $333,900 2,644 sq. ft. 159,865 sq. ft. $126
2018-05-30 Single Family Ranch 73 Harrison Manchester, NH 03104 $189,900 1,200 sq. ft. 4,356 sq. ft. $158
2018-05-28 Single Family Colonial 242 North Bay Manchester, NH 03104 $489,000 3,390 sq. ft. 11,326 sq. ft. $144
2018-05-26 Single Family Antique; Historic Vintage; Victorian 488 Manchester Manchester, NH 03103 $399,900 3,460 sq. ft. 14,375 sq. ft. $116
2018-05-24 Single Family New Englander 877 Somerville Manchester, NH 03103 $210,000 1,938 sq. ft. 14,375 sq. ft. $108
2018-05-24 Single Family Colonial 24 Briarcliff Manchester, NH 03109 $317,900 1,930 sq. ft. 8,276 sq. ft. $165
2018-05-23 Single Family Raised Ranch; Split Level; Split Entry 240 Leda Manchester, NH 03104 $419,900 4,161 sq. ft. 44,431 sq. ft. $101
2018-05-23 Single Family Ranch 249 Rhode Island Manchester, NH 03104 $298,500 1,679 sq. ft. 7,405 sq. ft. $178
2018-05-22 Single Family Cape 503 Cedar Manchester, NH 03103 $170,000 1,170 sq. ft. 5,663 sq. ft. $145
2018-05-21 Single Family Colonial 28 Leandre Manchester, NH 03102 $274,900 2,362 sq. ft. 15,682 sq. ft. $116
2018-05-21 Single Family New Englander 529 Maple Manchester, NH 03104 $159,900 1,893 sq. ft. 2,614 sq. ft. $84
2018-05-17 Single Family Cape 612 Central Manchester, NH 03103 $224,900 1,879 sq. ft. 12,197 sq. ft. $120
2018-05-17 Single Family Colonial 40 Trenton Manchester, NH 03104 $549,900 2,900 sq. ft. 7,841 sq. ft. $190
2018-05-16 Single Family Gambrel 445 Blevens Manchester, NH 03104 $275,000 2,760 sq. ft. 7,405 sq. ft. $100
2018-05-16 Single Family Split Entry 664 Central (Upper) Manchester, NH 03103 $269,900 2,814 sq. ft. 7,405 sq. ft. $96
2018-05-14 Single Family Colonial 752 Mammoth Manchester, NH 03104 $242,000 1,600 sq. ft. 5,227 sq. ft. $151
2018-05-12 Single Family Ranch 133 Scenic Manchester, NH 03104 $604,900 2,283 sq. ft. 20,909 sq. ft. $265
2018-05-12 Single Family Bungalow 265 Maplehurst Manchester, NH 03104 $89,900 902 sq. ft. 6,534 sq. ft. $100
2018-05-10 Single Family Cape 78 Gray Manchester, NH 03103 $229,900 2,000 sq. ft. 10,454 sq. ft. $115
2018-05-10 Single Family Colonial; Multi-Family 162 Reed Manchester, NH 03102 $395,000 3,757 sq. ft. 5,227 sq. ft. $105
2018-05-10 Single Family Colonial 498 Amherst Manchester, NH 03104 $289,900 2,214 sq. ft. 6,970 sq. ft. $131
2018-05-10 Single Family Tudor; Victorian; Arts And Crafts; Craftsman 270 North Bay Manchester, NH 03104 $515,000 4,135 sq. ft. 9,583 sq. ft. $125
2018-05-10 Single Family Colonial 448 Coral Manchester, NH 03104 $345,000 2,326 sq. ft. 12,632 sq. ft. $148
2018-05-10 Single Family Colonial 179 Glen Forest Manchester, NH 03109 $289,900 2,880 sq. ft. 47,045 sq. ft. $101
2018-05-10 Single Family Colonial 160 Eddy Manchester, NH 03102 $209,900 2,006 sq. ft. 10,019 sq. ft. $105
2018-05-09 Single Family Cape 12 Chapleau Manchester, NH 03102 $232,000 1,140 sq. ft. 5,663 sq. ft. $204
2018-05-09 Single Family Cape 167 Seames Manchester, NH 03103 $225,000 941 sq. ft. 6,534 sq. ft. $239
2018-05-09 Single Family Cape 255 Boynton Manchester, NH 03102 $234,900 1,152 sq. ft. 7,405 sq. ft. $204
2018-05-09 Single Family Ranch 192 Mystic Manchester, NH 03013 $224,900 1,040 sq. ft. 871 sq. ft. $216
2018-05-09 Single Family New Englander 761 Amherst Manchester, NH 03104 $165,000 948 sq. ft. 4,356 sq. ft. $174
2018-04-26 Single Family Cape 912 Montgomery Manchester, NH 03102 $395,900 2,501 sq. ft. 17,860 sq. ft. $158
2018-04-25 Single Family Colonial 8 Pomodoro Manchester, NH 03109 $329,900 1,680 sq. ft. 10,019 sq. ft. $196
2018-04-22 Single Family New Englander 195 Boutwell Manchester, NH 03102 $164,900 1,162 sq. ft. 4,356 sq. ft. $142
2018-04-17 Single Family Colonial Lot 13 Island Pond Manchester, NH 03109 $365,900 2,076 sq. ft. 12,632 sq. ft. $176
2018-04-13 Single Family Ranch 956 Smyth Manchester, NH 03104 $399,900 1,750 sq. ft. 53,143 sq. ft. $229
2018-04-11 Single Family Colonial 104 Hubbard Manchester, NH 03104 $254,900 1,716 sq. ft. 6,970 sq. ft. $149
2018-04-07 Single Family Colonial 90 Mirror Manchester, NH 03104 $249,900 1,630 sq. ft. 6,534 sq. ft. $153
2018-04-03 Single Family Colonial; Craftsman 715 River Manchester, NH 03104 $449,900 2,924 sq. ft. 14,810 sq. ft. $154
2018-04-02 Single Family Cape 219 Scenic Manchester, NH 03104 $624,900 2,546 sq. ft. 34,848 sq. ft. $245
2018-03-27 Single Family Ranch 43 Maryland Manchester, NH 03104 $224,900 1,506 sq. ft. 11,761 sq. ft. $149
2018-03-19 Single Family Colonial 77 Oakland Manchester, NH 03109 $309,900 1,600 sq. ft. 12,632 sq. ft. $194
2018-03-16 Single Family Colonial 893 Clay Manchester, NH 03103 $214,900 2,126 sq. ft. 4,792 sq. ft. $101
2018-03-07 Single Family New Englander 738 Hall Manchester, NH 03104 $199,900 1,593 sq. ft. 3,049 sq. ft. $125
2018-03-06 Single Family Ranch 968 Smyth Manchester, NH 03104 $379,900 1,600 sq. ft. 45,738 sq. ft. $237
2018-03-05 Single Family Colonial 932 Smyth Manchester, NH 03104 $379,900 2,280 sq. ft. 70,567 sq. ft. $167
2018-02-18 Single Family Cape 35 Nashua Manchester, NH 03104 $259,000 1,161 sq. ft. 5,663 sq. ft. $223
2018-02-16 Single Family Contemporary; Ranch; Walkout Lower Level 1112 Union Manchester, NH 03104 $699,900 5,601 sq. ft. 25,700 sq. ft. $125
2018-01-27 Single Family Colonial 40 Scenic Manchester, NH 03104 $634,900 3,102 sq. ft. 15,682 sq. ft. $205
2018-01-27 Single Family Ranch 78 Scenic Manchester, NH 03104 $604,900 2,283 sq. ft. 25,265 sq. ft. $265
2018-01-27 Single Family Colonial 18 Scenic Manchester, NH 03104 $619,900 3,422 sq. ft. 29,185 sq. ft. $181
2018-01-27 Single Family Colonial 148 Scenic Manchester, NH 03104 $639,900 2,722 sq. ft. 23,087 sq. ft. $235
2018-01-27 Single Family Colonial 27 Scenic Manchester, NH 03104 $619,900 3,422 sq. ft. 26,572 sq. ft. $181
2018-01-26 Single Family New Englander 320 Manchester Manchester, NH 03103 $115,900 1,737 sq. ft. 5,227 sq. ft. $67
2017-12-27 Single Family Cape 13 Dunbar Manchester, NH 03103 $165,000 1,286 sq. ft. 9,148 sq. ft. $128
2017-12-23 Single Family Colonial 195 Vandora Manchester, NH 03103 $279,900 1,896 sq. ft. 73,181 sq. ft. $148
2017-12-20 Single Family Colonial Unit 22 Countryside Manchester, NH 03102 $367,400 1,486 sq. ft. $247
2017-12-20 Single Family Colonial Unit 16 Crosswood Manchester, NH 03102 $360,400 1,450 sq. ft. $249
2017-12-20 Single Family Colonial 26 Crosswood Manchester, NH 03102 $367,400 1,574 sq. ft. $233
2017-12-16 Single Family Gambrel 25 Lamonte Manchester, NH 03104 $199,900 1,872 sq. ft. 5,227 sq. ft. $107
2017-11-21 Single Family Gambrel 309 River Rd & 2 Elliot Manchester, NH 03104 $749,000 5,272 sq. ft. 20,909 sq. ft. $142
2017-11-21 Single Family New Englander 309 River Manchester, NH 03104 $450,000 3,205 sq. ft. 8,712 sq. ft. $140
2017-11-09 Single Family Ranch 95 Springwood Manchester, NH 03102 $412,056 1,620 sq. ft. $254
2017-10-17 Single Family Colonial Unit R Crosswood Manchester, NH 03102 $359,900 1,574 sq. ft. 622,037 sq. ft. $229
2017-07-28 Single Family Bungalow 512 Coolidge Manchester, NH 03102 $207,000 2,660 sq. ft. 5,663 sq. ft. $78
2017-07-11 Single Family Colonial Unit M Crosswood Manchester, NH 03102 $354,900 1,486 sq. ft. $239
2017-06-29 Single Family 675 & 685 Coolidge Manchester, NH 03105 $1,250,000 2,400 sq. ft. 10,890 sq. ft. $521
2017-06-02 Single Family Bungalow 192 Arah Manchester, NH 03104 $249,000 1,623 sq. ft. 29,621 sq. ft. $153
2017-02-16 Single Family Colonial 57 Covington Manchester, NH 03104 $406,900 2,124 sq. ft. 32,670 sq. ft. $192
2017-02-16 Single Family Colonial 24 Covington Manchester, NH 03104 $399,900 2,124 sq. ft. 16,117 sq. ft. $188
2017-02-16 Single Family Colonial 19 Starburst Manchester, NH 03104 $399,900 2,124 sq. ft. 19,602 sq. ft. $188
2017-02-16 Single Family Colonial 59 Covington Manchester, NH 03104 $406,900 2,124 sq. ft. 25,700 sq. ft. $192
2017-02-16 Single Family Colonial 23 Covington Manchester, NH 03104 $399,900 2,124 sq. ft. 13,504 sq. ft. $188
2017-02-16 Single Family Colonial 29 Starburst Manchester, NH 03104 $399,000 2,124 sq. ft. 17,860 sq. ft. $188
2017-02-10 Single Family Ranch 26 Starburst Manchester, NH 03104 $399,900 1,850 sq. ft. 32,234 sq. ft. $216
2016-09-21 Single Family Ranch 115 Springwood Manchester, NH 03102 $348,500 1,484 sq. ft. $235
2016-09-07 Single Family Colonial Unit H Crosswood Manchester, NH 03102 $357,900 1,448 sq. ft. 622,037 sq. ft. $247
2016-09-07 Single Family Colonial Unit 17 Crosswood Manchester, NH 03102 $330,400 1,426 sq. ft. 622,037 sq. ft. $232
2016-09-07 Single Family Colonial Unit 21 Countryside Manchester, NH 03102 $367,400 1,486 sq. ft. $247